< Typhoon 195314 1953 Season Typhoon 195316 >
Typhoon 195315 (NO-NAME)
General InformationTrack Information on Google Maps || Disaster Info.ResourceGoogle EarthGE AnimationAtom FeedGeoJSON
Detalied Best Track (Time Zone = UTC)
Year Month Day Hour Lat. Long. Pressure (hPa) Wind (kt) Class Image Chart
1953 9 27 12 18.2 125.7 1010 0 2 -- Chart
1953 9 27 18 18.4 125.1 1010 0 2 -- Chart
1953 9 28 00 18.7 124.7 1010 0 2 -- Chart
1953 9 28 06 19.0 124.4 1008 0 2 -- Chart
1953 9 28 12 19.4 123.9 1008 0 2 -- Chart
1953 9 28 18 19.7 123.5 1008 0 2 -- Chart
1953 9 29 00 20.1 123.2 1008 0 2 -- Chart
1953 9 29 06 20.6 122.9 1008 0 2 -- Chart
1953 9 29 12 21.0 122.6 1008 0 2 -- Chart
1953 9 29 18 21.5 122.5 1008 0 2 -- Chart
1953 9 30 00 22.0 122.4 1008 0 2 -- Chart
1953 9 30 06 22.6 122.5 1008 0 2 -- Chart
1953 9 30 12 23.2 122.7 1008 0 2 -- Chart
1953 9 30 18 23.9 123.5 1006 0 2 -- Chart
1953 10 1 00 24.7 125.0 999 0 2 -- Chart
1953 10 1 06 25.3 127.0 999 0 9 -- Chart
1953 10 1 12 25.9 129.0 999 0 9 -- Chart
1953 10 1 18 27.0 131.0 1006 0 9 -- Chart
1953 10 2 00 28.7 133.5 1006 0 9 -- Chart
1953 10 2 06 31.0 138.0 1000 0 9 -- Chart
1953 10 2 12 31.2 141.2 1002 0 9 -- Chart
1953 10 2 18 33.7 146.0 1000 0 9 -- Chart
1953 10 3 00 35.0 150.0 1004 0 6 -- Chart
Japan Meteorological Agency Best Track Data | Correction Date : 1989-06-01
< Typhoon 195314 1953 Season Typhoon 195316 >

Help